createdAt,value
2022-12-11T00:01:22.042Z,97951.41
2022-12-11T00:04:25.207Z,97948.91
2022-12-11T00:07:27.843Z,97950.22
2022-12-11T00:10:37.548Z,97951.81
2022-12-11T00:13:41.081Z,97946.19
2022-12-11T00:16:44.314Z,97948.66
2022-12-11T00:19:47.428Z,97947.16
2022-12-11T00:22:50.035Z,97940.03
2022-12-11T00:25:54.446Z,97943.59
2022-12-11T00:28:58.256Z,97947.88
2022-12-11T00:32:01.152Z,97943.34
2022-12-11T00:35:03.951Z,97946.31
2022-12-11T00:38:06.563Z,97941.19
2022-12-11T00:41:10.766Z,97941.19
2022-12-11T00:44:13.448Z,97937.16
2022-12-11T00:47:16.018Z,97933.66
2022-12-11T00:50:18.888Z,97935.56
2022-12-11T00:53:21.522Z,97930.69
2022-12-11T00:56:25.641Z,97943.59
2022-12-11T00:59:29.362Z,97940.34
2022-12-11T01:02:32.058Z,97945.97
2022-12-11T01:05:35.240Z,97944.88
2022-12-11T01:08:38.831Z,97950.53
2022-12-11T01:11:43.485Z,97952.13
2022-12-11T01:14:46.198Z,97961.78
2022-12-11T01:17:48.846Z,97960.19
2022-12-11T01:20:51.535Z,97970.66
2022-12-11T01:23:54.289Z,97976.00
2022-12-11T01:26:58.335Z,97975.72
2022-12-11T01:30:01.018Z,97983.00
2022-12-11T01:33:03.853Z,97978.41
2022-12-11T01:36:09.407Z,97977.91
2022-12-11T01:39:12.171Z,97974.94
2022-12-11T01:42:19.051Z,97979.22
2022-12-11T01:45:28.788Z,97971.44
2022-12-11T01:48:32.934Z,97982.44
2022-12-11T01:51:41.752Z,97984.88
2022-12-11T01:54:44.725Z,97980.53
2022-12-11T01:57:50.056Z,97985.13
2022-12-11T02:00:52.886Z,97986.72
2022-12-11T02:03:57.016Z,97986.47
2022-12-11T02:06:59.760Z,97990.75
2022-12-11T02:10:02.888Z,97989.66
2022-12-11T02:13:12.657Z,97987.78
2022-12-11T02:16:19.070Z,97994.78
2022-12-11T02:19:36.317Z,97990.25
2022-12-11T02:22:55.731Z,97991.56
2022-12-11T02:26:06.200Z,97994.47
2022-12-11T02:29:13.234Z,97984.81
2022-12-11T02:32:18.241Z,97981.59
2022-12-11T02:35:23.480Z,97967.34
2022-12-11T02:38:29.331Z,97968.16
2022-12-11T02:41:33.997Z,97980.53
2022-12-11T02:44:39.504Z,97974.38
2022-12-11T02:47:43.339Z,97978.94
2022-12-11T02:50:49.016Z,97975.66
2022-12-11T02:53:55.861Z,97975.66
2022-12-11T02:57:03.042Z,97979.94
2022-12-11T03:00:10.224Z,97984.56
2022-12-11T03:03:13.340Z,97977.53
2022-12-11T03:06:19.339Z,97977.78
2022-12-11T03:09:23.264Z,97976.50
2022-12-11T03:12:26.672Z,97977.91
2022-12-11T03:15:37.002Z,97973.63
2022-12-11T03:18:44.189Z,97984.63
2022-12-11T03:21:52.579Z,97979.00
2022-12-11T03:25:00.055Z,97978.47
2022-12-11T03:28:08.828Z,97981.41
2022-12-11T03:31:15.895Z,97986.25
2022-12-11T03:34:23.868Z,97982.72
2022-12-11T03:37:27.690Z,97992.16
2022-12-11T03:40:30.307Z,97977.94
2022-12-11T03:43:33.917Z,97980.88
2022-12-11T03:46:40.561Z,97979.56
2022-12-11T03:49:44.823Z,97992.44
2022-12-11T03:52:48.016Z,97987.06
2022-12-11T03:55:51.272Z,97979.78
2022-12-11T03:58:54.239Z,97981.94
2022-12-11T04:01:58.830Z,97978.47
2022-12-11T04:05:02.009Z,97980.91
2022-12-11T04:08:05.150Z,97969.09
2022-12-11T04:11:25.872Z,97960.75
2022-12-11T04:14:46.883Z,97963.19
2022-12-11T04:18:08.835Z,97964.53
2022-12-11T04:21:28.882Z,97951.66
2022-12-11T04:24:32.030Z,97953.25
2022-12-11T04:27:52.104Z,97947.38
2022-12-11T04:30:54.830Z,97943.59
2022-12-11T04:33:59.273Z,97934.69
2022-12-11T04:37:01.912Z,97936.81
2022-12-11T04:40:05.929Z,97939.78
2022-12-11T04:43:08.625Z,97934.94
2022-12-11T04:46:13.568Z,97925.28
2022-12-11T04:49:18.070Z,97927.44
2022-12-11T04:52:21.110Z,97923.69
2022-12-11T04:55:26.051Z,97922.09
2022-12-11T04:58:29.121Z,97911.84
2022-12-11T05:01:31.865Z,97906.75
2022-12-11T05:04:36.527Z,97906.75
2022-12-11T05:07:39.466Z,97909.16
2022-12-11T05:10:45.808Z,97922.34
2022-12-11T05:13:53.200Z,97927.72
2022-12-11T05:16:55.874Z,97939.78
2022-12-11T05:19:59.908Z,97933.88
2022-12-11T05:23:02.667Z,97938.19
2022-12-11T05:26:06.959Z,97931.50
2022-12-11T05:29:09.661Z,97923.19
2022-12-11T05:32:12.434Z,97914.63
2022-12-11T05:35:16.359Z,97917.84
2022-12-11T05:38:19.364Z,97924.25
2022-12-11T05:41:25.334Z,97935.19
2022-12-11T05:44:28.216Z,97923.84
2022-12-11T05:47:31.957Z,97923.53
2022-12-11T05:50:36.008Z,97905.78
2022-12-11T05:53:40.566Z,97908.63
2022-12-11T05:56:43.401Z,97925.00
2022-12-11T05:59:46.557Z,97924.22
2022-12-11T06:02:49.213Z,97930.34
2022-12-11T06:05:53.293Z,97917.22
2022-12-11T06:08:57.734Z,97922.78
2022-12-11T06:12:00.406Z,97930.31
2022-12-11T06:15:04.612Z,97924.34
2022-12-11T06:18:07.242Z,97922.78
2022-12-11T06:21:15.823Z,97914.53
2022-12-11T06:24:18.461Z,97919.63
2022-12-11T06:27:21.079Z,97921.16
2022-12-11T06:30:37.631Z,97919.03
2022-12-11T06:33:42.415Z,97909.31
2022-12-11T06:36:46.444Z,97912.75
2022-12-11T06:39:49.181Z,97904.47
2022-12-11T06:42:51.773Z,97910.13
2022-12-11T06:45:59.178Z,97910.97
2022-12-11T06:49:04.892Z,97913.69
2022-12-11T06:52:13.662Z,97914.50
2022-12-11T06:55:19.463Z,97911.03
2022-12-11T06:58:22.448Z,97914.50
2022-12-11T07:01:27.242Z,97919.09
2022-12-11T07:04:31.676Z,97925.88
2022-12-11T07:07:36.597Z,97930.50
2022-12-11T07:10:39.327Z,97932.13
2022-12-11T07:13:43.067Z,97939.63
2022-12-11T07:16:45.739Z,97929.69
2022-12-11T07:19:48.392Z,97918.72
2022-12-11T07:22:52.568Z,97927.81
2022-12-11T07:25:55.377Z,97939.44
2022-12-11T07:28:58.667Z,97937.63
2022-12-11T07:32:01.408Z,97939.84
2022-12-11T07:35:04.509Z,97931.78
2022-12-11T07:38:09.423Z,97937.44
2022-12-11T07:41:14.579Z,97941.44
2022-12-11T07:44:17.836Z,97947.09
2022-12-11T07:47:20.379Z,97946.03
2022-12-11T07:50:22.971Z,97945.22
2022-12-11T07:53:27.006Z,97943.03
2022-12-11T07:56:30.382Z,97938.44
2022-12-11T07:59:33.207Z,97937.59
2022-12-11T08:02:37.531Z,97938.09
2022-12-11T08:05:40.502Z,97939.38
2022-12-11T08:08:45.204Z,97937.94
2022-12-11T08:11:49.650Z,97932.47
2022-12-11T08:14:52.309Z,97937.78
2022-12-11T08:17:55.576Z,97940.94
2022-12-11T08:20:58.378Z,97937.47
2022-12-11T08:24:02.871Z,97940.78
2022-12-11T08:27:05.519Z,97945.66
2022-12-11T08:30:09.446Z,97944.03
2022-12-11T08:33:11.995Z,97933.91
2022-12-11T08:36:16.463Z,97936.34
2022-12-11T08:39:20.357Z,97943.00
2022-12-11T08:42:23.145Z,97945.25
2022-12-11T08:45:27.084Z,97950.63
2022-12-11T08:48:29.821Z,97947.59
2022-12-11T08:51:32.718Z,97945.97
2022-12-11T08:54:37.989Z,97948.38
2022-12-11T08:57:40.741Z,97941.00
2022-12-11T09:00:44.176Z,97939.66
2022-12-11T09:03:47.137Z,97931.78
2022-12-11T09:06:50.054Z,97932.31
2022-12-11T09:09:55.985Z,97933.53
2022-12-11T09:12:58.908Z,97936.34
2022-12-11T09:16:01.886Z,97933.91
2022-12-11T09:19:04.960Z,97935.13
2022-12-11T09:22:10.100Z,97935.94
2022-12-11T09:25:14.945Z,97924.69
2022-12-11T09:28:17.694Z,97937.25
2022-12-11T09:31:24.272Z,97931.44
2022-12-11T09:34:29.448Z,97925.94
2022-12-11T09:37:34.165Z,97917.59
2022-12-11T09:40:43.438Z,97911.88
2022-12-11T09:43:49.705Z,97922.41
2022-12-11T09:46:53.221Z,97919.13
2022-12-11T09:50:02.575Z,97917.50
2022-12-11T09:53:09.665Z,97914.03
2022-12-11T09:56:18.382Z,97910.16
2022-12-11T09:59:25.139Z,97901.09
2022-12-11T10:02:35.003Z,97909.25
2022-12-11T10:05:45.700Z,97907.72
2022-12-11T10:08:58.645Z,97912.47
2022-12-11T10:12:14.793Z,97902.72
2022-12-11T10:15:25.412Z,97909.66
2022-12-11T10:18:29.503Z,97892.66
2022-12-11T10:21:39.452Z,97888.69
2022-12-11T10:28:14.548Z,97887.09
2022-12-11T10:31:19.424Z,97881.19
2022-12-11T10:34:32.460Z,97879.28
2022-12-11T10:37:35.229Z,97872.66
2022-12-11T10:40:39.251Z,97876.06
2022-12-11T10:43:46.047Z,97873.44
2022-12-11T10:47:02.370Z,97864.47
2022-12-11T10:50:05.825Z,97863.03
2022-12-11T10:53:21.458Z,97856.72
2022-12-11T10:56:29.076Z,97854.31
2022-12-11T10:59:35.853Z,97849.38
2022-12-11T11:02:40.438Z,97856.75
2022-12-11T11:05:49.380Z,97857.16
2022-12-11T11:08:55.111Z,97849.38
2022-12-11T11:12:00.825Z,97845.59
2022-12-11T11:15:12.318Z,97841.81
2022-12-11T11:18:23.037Z,97846.81
2022-12-11T11:21:28.495Z,97836.94
2022-12-11T11:24:35.474Z,97840.91
2022-12-11T11:27:49.344Z,97830.75
2022-12-11T11:31:02.576Z,97835.69
2022-12-11T11:34:08.334Z,97827.66
2022-12-11T11:37:24.878Z,97832.84
2022-12-11T11:40:30.512Z,97841.03
2022-12-11T11:43:39.159Z,97836.09
2022-12-11T11:46:46.964Z,97829.50
2022-12-11T11:49:56.863Z,97824.69
2022-12-11T11:53:05.563Z,97813.34
2022-12-11T11:56:23.594Z,97818.28
2022-12-11T11:59:31.224Z,97819.25
2022-12-11T12:02:35.582Z,97817.69
2022-12-11T12:05:44.485Z,97816.25
2022-12-11T12:08:54.945Z,97811.94
2022-12-11T12:12:11.029Z,97809.94
2022-12-11T12:15:21.986Z,97809.16
2022-12-11T12:18:33.167Z,97814.47
2022-12-11T12:21:39.340Z,97814.63
2022-12-11T12:24:48.436Z,97811.59
2022-12-11T12:27:58.116Z,97819.78
2022-12-11T12:31:13.160Z,97812.94
2022-12-11T12:34:27.502Z,97814.13
2022-12-11T12:37:47.541Z,97813.69
2022-12-11T12:40:57.952Z,97804.97
2022-12-11T12:44:08.592Z,97803.22
2022-12-11T12:47:14.307Z,97795.94
2022-12-11T12:50:20.850Z,97792.84
2022-12-11T12:53:26.756Z,97789.63
2022-12-11T12:56:33.099Z,97786.41
2022-12-11T12:59:35.830Z,97781.09
2022-12-11T13:02:39.403Z,97786.41
2022-12-11T13:05:45.334Z,97800.25
2022-12-11T13:08:49.891Z,97795.84
2022-12-11T13:11:57.867Z,97796.97
2022-12-11T13:15:01.304Z,97804.91
2022-12-11T13:18:06.456Z,97799.78
2022-12-11T13:21:29.656Z,97792.34
2022-12-11T13:24:34.180Z,97796.34
2022-12-11T13:27:42.768Z,97786.94
2022-12-11T13:30:45.916Z,97792.69
2022-12-11T13:33:50.511Z,97801.44
2022-12-11T13:36:55.758Z,97798.19
2022-12-11T13:39:59.226Z,97794.13
2022-12-11T13:43:04.013Z,97801.69
2022-12-11T13:46:09.176Z,97799.28
2022-12-11T13:49:22.266Z,97801.00
2022-12-11T13:52:27.785Z,97802.09
2022-12-11T13:55:34.081Z,97800.50
2022-12-11T13:58:39.820Z,97806.09
2022-12-11T14:01:42.589Z,97802.09
2022-12-11T14:04:45.754Z,97802.84
2022-12-11T14:07:51.153Z,97804.38
2022-12-11T14:10:55.679Z,97804.09
2022-12-11T14:14:00.154Z,97805.38
2022-12-11T14:17:03.860Z,97813.41
2022-12-11T14:20:08.472Z,97806.00
2022-12-11T14:23:19.316Z,97819.22
2022-12-11T14:26:23.978Z,97813.41
2022-12-11T14:29:33.424Z,97823.97
2022-12-11T14:32:38.189Z,97827.41
2022-12-11T14:35:44.000Z,97823.13
2022-12-11T14:38:50.708Z,97831.72
2022-12-11T14:41:59.427Z,97836.91
2022-12-11T14:45:04.894Z,97832.44
2022-12-11T14:48:11.503Z,97834.56
2022-12-11T14:51:17.079Z,97832.94
2022-12-11T14:54:29.810Z,97830.25
2022-12-11T14:57:34.459Z,97837.44
2022-12-11T15:00:38.319Z,97841.94
2022-12-11T15:03:43.260Z,97843.22
2022-12-11T15:06:47.631Z,97840.25
2022-12-11T15:09:52.794Z,97842.34
2022-12-11T15:12:55.988Z,97841.06
2022-12-11T15:15:59.823Z,97847.06
2022-12-11T15:19:02.450Z,97845.56
2022-12-11T15:22:07.110Z,97849.34
2022-12-11T15:25:20.688Z,97846.13
2022-12-11T15:28:27.872Z,97845.88
2022-12-11T15:31:33.312Z,97848.53
2022-12-11T15:34:43.081Z,97846.94
2022-12-11T15:37:53.587Z,97845.06
2022-12-11T15:40:58.621Z,97844.19
2022-12-11T15:44:02.855Z,97858.41
2022-12-11T15:47:13.353Z,97859.09
2022-12-11T15:50:18.454Z,97863.91
2022-12-11T15:53:21.120Z,97860.13
2022-12-11T15:56:27.190Z,97864.41
2022-12-11T15:59:30.119Z,97871.28
2022-12-11T16:02:35.076Z,97871.75
2022-12-11T16:05:37.917Z,97869.94
2022-12-11T16:08:40.815Z,97867.25
2022-12-11T16:11:45.066Z,97875.03
2022-12-11T16:14:48.672Z,97878.84
2022-12-11T16:17:51.763Z,97871.91
2022-12-11T16:20:54.692Z,97873.81
2022-12-11T16:23:58.757Z,97870.13
2022-12-11T16:27:03.822Z,97875.22
2022-12-11T16:30:07.761Z,97870.44
2022-12-11T16:33:12.803Z,97877.50
2022-12-11T16:36:18.262Z,97872.66
2022-12-11T16:39:21.654Z,97863.84
2022-12-11T16:42:26.665Z,97866.78
2022-12-11T16:45:29.939Z,97862.75
2022-12-11T16:48:32.782Z,97861.69
2022-12-11T16:51:36.033Z,97862.50
2022-12-11T16:54:38.803Z,97858.75
2022-12-11T16:57:42.892Z,97864.66
2022-12-11T17:00:45.745Z,97866.28
2022-12-11T17:03:48.732Z,97866.56
2022-12-11T17:06:51.477Z,97864.16
2022-12-11T17:09:54.246Z,97864.72
2022-12-11T17:12:58.409Z,97863.38
2022-12-11T17:16:01.705Z,97867.91
2022-12-11T17:19:07.332Z,97862.25
2022-12-11T17:22:10.739Z,97861.47
2022-12-11T17:25:15.224Z,97849.41
2022-12-11T17:28:20.325Z,97857.69
2022-12-11T17:31:23.569Z,97854.50
2022-12-11T17:34:26.214Z,97863.06
2022-12-11T17:37:29.388Z,97862.81
2022-12-11T17:40:32.281Z,97862.03
2022-12-11T17:43:36.543Z,97859.88
2022-12-11T17:46:39.869Z,97858.28
2022-12-11T17:49:42.897Z,97857.22
2022-12-11T17:52:46.038Z,97853.41
2022-12-11T17:55:49.984Z,97851.75
2022-12-11T17:58:54.283Z,97852.50
2022-12-11T18:01:57.715Z,97859.16
2022-12-11T18:05:01.088Z,97863.94
2022-12-11T18:08:03.807Z,97858.28
2022-12-11T18:11:07.903Z,97859.59
2022-12-11T18:14:16.863Z,97858.53
2022-12-11T18:17:20.839Z,97855.38
2022-12-11T18:20:23.830Z,97858.88
2022-12-11T18:23:27.015Z,97851.94
2022-12-11T18:26:29.958Z,97854.34
2022-12-11T18:29:34.009Z,97857.09
2022-12-11T18:32:36.786Z,97855.81
2022-12-11T18:35:39.689Z,97844.84
2022-12-11T18:38:43.309Z,97853.16
2022-12-11T18:41:58.374Z,97852.38
2022-12-11T18:45:11.601Z,97844.31
2022-12-11T18:48:15.253Z,97855.00
2022-12-11T18:51:22.749Z,97850.41
2022-12-11T18:54:25.532Z,97848.25
2022-12-11T18:57:29.306Z,97854.91
2022-12-11T19:00:34.341Z,97853.28
2022-12-11T19:03:37.475Z,97861.03
2022-12-11T19:06:40.122Z,97858.34
2022-12-11T19:09:47.831Z,97863.41
2022-12-11T19:12:50.976Z,97858.81
2022-12-11T19:15:55.205Z,97862.09
2022-12-11T19:18:59.167Z,97854.91
2022-12-11T19:22:01.831Z,97865.69
2022-12-11T19:25:06.459Z,97867.88
2022-12-11T19:28:09.136Z,97853.97
2022-12-11T19:31:15.975Z,97853.16
2022-12-11T19:34:19.480Z,97853.38
2022-12-11T19:37:22.596Z,97842.31
2022-12-11T19:40:26.667Z,97853.50
2022-12-11T19:43:29.467Z,97844.06
2022-12-11T19:46:33.650Z,97849.09
2022-12-11T19:49:36.497Z,97852.78
2022-12-11T19:52:45.838Z,97850.75
2022-12-11T19:55:50.972Z,97847.56
2022-12-11T19:58:53.696Z,97858.53
2022-12-11T20:01:57.824Z,97855.63
2022-12-11T20:05:00.526Z,97869.22
2022-12-11T20:08:35.230Z,97878.31
2022-12-11T20:11:27.741Z,97868.88
2022-12-11T20:14:31.158Z,97872.94
2022-12-11T20:17:36.841Z,97883.19
2022-12-11T20:20:39.915Z,97878.66
2022-12-11T20:23:43.110Z,97872.75
2022-12-11T20:26:47.088Z,97878.94
2022-12-11T20:29:50.248Z,97873.84
2022-12-11T20:32:55.328Z,97879.72
2022-12-11T20:35:58.108Z,97868.22
2022-12-11T20:39:01.320Z,97880.81
2022-12-11T20:42:05.002Z,97875.44
2022-12-11T20:45:09.656Z,97873.28
2022-12-11T20:48:15.166Z,97873.56
2022-12-11T20:51:25.777Z,97881.28
2022-12-11T20:54:29.624Z,97882.66
2022-12-11T20:57:32.568Z,97881.84
2022-12-11T21:00:37.704Z,97879.41
2022-12-11T21:03:42.728Z,97879.41
2022-12-11T21:06:45.675Z,97887.72
2022-12-11T21:09:49.069Z,97873.22
2022-12-11T21:12:51.669Z,97881.78
2022-12-11T21:15:56.725Z,97880.19
2022-12-11T21:19:02.022Z,97887.94
2022-12-11T21:22:05.547Z,97880.97
2022-12-11T21:25:08.866Z,97882.56
2022-12-11T21:28:12.002Z,97878.00
2022-12-11T21:31:16.583Z,97878.28
2022-12-11T21:34:25.309Z,97878.56
2022-12-11T21:37:30.005Z,97881.50
2022-12-11T21:40:33.985Z,97878.56
2022-12-11T21:43:40.026Z,97878.56
2022-12-11T21:46:51.204Z,97882.84
2022-12-11T21:49:55.381Z,97893.03
2022-12-11T21:52:59.622Z,97883.38
2022-12-11T21:56:06.561Z,97896.78
2022-12-11T21:59:09.336Z,97886.56
2022-12-11T22:02:12.880Z,97896.22
2022-12-11T22:05:17.401Z,97901.88
2022-12-11T22:08:20.118Z,97899.75
2022-12-11T22:11:26.206Z,97902.66
2022-12-11T22:14:30.772Z,97906.97
2022-12-11T22:17:34.476Z,97900.81
2022-12-11T22:20:38.499Z,97905.66
2022-12-11T22:23:42.411Z,97902.19
2022-12-11T22:26:49.766Z,97901.59
2022-12-11T22:29:52.769Z,97896.31
2022-12-11T22:32:55.511Z,97901.66
2022-12-11T22:36:00.893Z,97904.88
2022-12-11T22:39:05.426Z,97892.22
2022-12-11T22:42:08.211Z,97901.44
2022-12-11T22:45:12.519Z,97888.25
2022-12-11T22:48:15.626Z,97899.28
2022-12-11T22:51:20.578Z,97902.50
2022-12-11T22:54:23.108Z,97901.69
2022-12-11T22:57:25.778Z,97904.13
2022-12-11T23:00:28.421Z,97908.13
2022-12-11T23:03:31.177Z,97910.53
2022-12-11T23:06:35.642Z,97904.66
2022-12-11T23:09:38.455Z,97907.06
2022-12-11T23:12:41.148Z,97909.22
2022-12-11T23:15:44.243Z,97910.53
2022-12-11T23:18:47.886Z,97906.53
2022-12-11T23:21:52.020Z,97907.84
2022-12-11T23:24:54.608Z,97907.31
2022-12-11T23:27:57.447Z,97899.56
2022-12-11T23:31:00.482Z,97909.19
2022-12-11T23:34:03.717Z,97901.38
2022-12-11T23:37:07.767Z,97905.16
2022-12-11T23:40:11.711Z,97907.03
2022-12-11T23:43:14.167Z,97906.78
2022-12-11T23:46:19.122Z,97912.97
2022-12-11T23:49:22.015Z,97902.78
2022-12-11T23:52:26.636Z,97907.38
2022-12-11T23:55:30.881Z,97900.66
2022-12-11T23:58:37.489Z,97906.84
